Time;durP1;ratioP1;P1;durP2;ratioP2;P2;SDS_P1;SDS_P2;PMS_P1;PMS_P2;Temp;Humidity;BMP_temperature;BMP_pressure;BME280_temperature;BME280_humidity;BME280_pressure;Samples;Min_cycle;Max_cycle;Signal;HPM_P1;HPM_P2
2021/11/08 00:00:45;;;;;;;0.40;0.20;;;8.00;99.90;;;;;;5091184;28;20389;-70
2021/11/08 00:03:15;;;;;;;1.70;1.20;;;7.90;99.90;;;;;;5090951;28;20374;-70
2021/11/08 00:05:43;;;;;;;0.68;0.65;;;7.90;99.90;;;;;;5090900;28;20389;-70
2021/11/08 00:08:12;;;;;;;0.40;0.20;;;8.00;99.90;;;;;;5090943;28;20743;-70
2021/11/08 00:10:38;;;;;;;0.40;0.30;;;8.10;99.90;;;;;;5089326;28;20496;-70
2021/11/08 00:13:06;;;;;;;0.40;0.20;;;8.20;99.90;;;;;;5090284;28;20927;-70
2021/11/08 00:15:52;;;;;;;0.40;0.30;;;8.10;99.90;;;;;;5090810;28;20408;-70
2021/11/08 00:20:52;;;;;;;0.40;0.30;;;8.10;99.90;;;;;;5090111;28;20406;-71
2021/11/08 00:23:18;;;;;;;0.40;0.20;;;8.10;99.90;;;;;;5091672;28;20386;-70
2021/11/08 00:25:44;;;;;;;0.40;0.30;;;8.10;99.90;;;;;;5090057;28;20393;-70
2021/11/08 00:28:12;;;;;;;0.40;0.40;;;7.90;99.90;;;;;;5091967;28;20582;-70
2021/11/08 00:30:39;;;;;;;0.40;0.30;;;8.10;99.90;;;;;;5076813;28;20905;-70
2021/11/08 00:33:10;;;;;;;0.40;0.20;;;8.20;99.90;;;;;;5102420;28;20378;-70
2021/11/08 00:35:36;;;;;;;0.40;0.20;;;8.00;99.90;;;;;;5090467;28;20889;-70
2021/11/08 00:38:04;;;;;;;0.40;0.20;;;7.90;99.90;;;;;;5089819;28;20419;-70
2021/11/08 00:40:29;;;;;;;0.50;0.40;;;7.90;99.90;;;;;;5090268;28;20382;-70
2021/11/08 00:42:55;;;;;;;0.60;0.60;;;8.00;99.90;;;;;;5089576;28;20451;-69
2021/11/08 00:45:21;;;;;;;1.60;0.80;;;8.00;99.90;;;;;;5090413;28;20657;-70
2021/11/08 00:47:47;;;;;;;0.90;0.70;;;8.00;99.90;;;;;;5089603;28;20492;-70
2021/11/08 00:50:13;;;;;;;0.40;0.20;;;8.10;99.90;;;;;;5089945;28;20493;-70
2021/11/08 00:52:39;;;;;;;0.40;0.30;;;8.20;99.90;;;;;;5090342;28;20815;-70
2021/11/08 00:55:05;;;;;;;0.40;0.20;;;8.30;99.90;;;;;;5089808;28;20696;-70
2021/11/08 00:57:35;;;;;;;0.40;0.20;;;8.20;99.90;;;;;;5090309;28;20408;-70
2021/11/08 01:00:01;;;;;;;0.40;0.20;;;8.00;99.90;;;;;;5089810;28;20409;-70
2021/11/08 01:02:29;;;;;;;0.40;0.40;;;8.10;99.90;;;;;;5090346;28;20396;-70
2021/11/08 01:04:57;;;;;;;0.40;0.20;;;8.20;99.90;;;;;;5089598;28;20378;-70
2021/11/08 01:07:23;;;;;;;0.40;0.20;;;8.10;99.90;;;;;;5090093;28;20381;-70
2021/11/08 01:09:49;;;;;;;0.40;0.20;;;8.10;99.90;;;;;;5089537;28;20378;-70
2021/11/08 01:12:15;;;;;;;0.40;0.20;;;8.00;99.90;;;;;;5090791;28;20404;-70
2021/11/08 01:14:41;;;;;;;0.40;0.30;;;7.90;99.90;;;;;;5094209;28;20476;-70
2021/11/08 01:17:09;;;;;;;0.40;0.20;;;7.90;99.90;;;;;;5093535;28;20396;-70
2021/11/08 01:19:35;;;;;;;0.40;0.20;;;8.00;99.90;;;;;;5094040;28;20378;-70
2021/11/08 01:22:07;;;;;;;0.40;0.20;;;7.90;99.90;;;;;;5093649;28;20746;-70
2021/11/08 01:24:36;;;;;;;0.70;0.70;;;7.80;99.90;;;;;;5094033;28;20768;-70
2021/11/08 01:27:03;;;;;;;0.40;0.30;;;7.80;99.90;;;;;;5095201;28;20374;-70
2021/11/08 01:29:31;;;;;;;0.40;0.20;;;7.70;99.90;;;;;;5114276;28;20380;-70
2021/11/08 01:31:58;;;;;;;0.40;0.30;;;7.60;99.90;;;;;;5113646;28;20760;-70
2021/11/08 01:34:25;;;;;;;0.40;0.30;;;7.60;99.90;;;;;;5114075;28;20904;-70
2021/11/08 01:36:54;;;;;;;1.10;0.70;;;7.50;99.90;;;;;;5109538;28;20834;-70
2021/11/08 01:39:24;;;;;;;0.40;0.30;;;7.40;99.90;;;;;;5114147;28;20384;-70
2021/11/08 01:41:50;;;;;;;0.52;0.52;;;7.40;99.90;;;;;;5113652;28;20437;-70
2021/11/08 01:44:16;;;;;;;0.40;0.20;;;7.30;99.90;;;;;;5114556;28;20376;-70
2021/11/08 01:46:42;;;;;;;0.40;0.20;;;7.20;99.90;;;;;;5113850;28;20455;-70
2021/11/08 01:49:08;;;;;;;0.40;0.20;;;7.10;99.90;;;;;;5092915;28;20421;-70
2021/11/08 01:51:35;;;;;;;0.90;0.80;;;7.20;99.90;;;;;;5093428;28;20425;-70
2021/11/08 01:54:05;;;;;;;0.40;0.30;;;7.10;99.90;;;;;;5092774;28;20453;-70
2021/11/08 01:56:31;;;;;;;0.40;0.30;;;6.90;99.90;;;;;;5093532;28;20468;-70
2021/11/08 01:58:57;;;;;;;0.40;0.30;;;6.80;99.90;;;;;;5091343;28;20883;-70
2021/11/08 02:01:24;;;;;;;0.40;0.20;;;6.80;99.90;;;;;;5093471;28;20378;-70
2021/11/08 02:03:50;;;;;;;0.40;0.30;;;6.80;99.90;;;;;;5092581;28;20382;-70
2021/11/08 02:06:16;;;;;;;0.40;0.20;;;6.70;99.90;;;;;;5091919;28;20417;-70
2021/11/08 02:08:43;;;;;;;0.40;0.30;;;6.50;99.90;;;;;;5093254;28;20386;-70
2021/11/08 02:11:09;;;;;;;0.40;0.20;;;6.60;99.90;;;;;;5092488;28;20736;-70
2021/11/08 02:13:35;;;;;;;0.40;0.40;;;6.60;99.90;;;;;;5092773;28;20377;-70
2021/11/08 02:16:02;;;;;;;0.40;0.20;;;6.60;99.90;;;;;;5092542;28;20465;-70
2021/11/08 02:18:28;;;;;;;0.40;0.40;;;6.60;99.90;;;;;;5093001;28;20418;-70
2021/11/08 02:20:55;;;;;;;0.40;0.30;;;6.60;99.90;;;;;;5092561;28;20429;-70
2021/11/08 02:23:23;;;;;;;0.40;0.30;;;6.60;99.90;;;;;;5092214;28;20927;-70
2021/11/08 02:25:49;;;;;;;0.40;0.30;;;6.70;99.90;;;;;;5092951;28;20429;-69
2021/11/08 02:28:16;;;;;;;0.40;0.20;;;6.60;99.90;;;;;;5092900;28;20440;-70
2021/11/08 02:30:43;;;;;;;0.40;0.30;;;6.70;99.90;;;;;;5091534;28;20874;-70
2021/11/08 02:33:12;;;;;;;0.50;0.50;;;6.90;99.90;;;;;;5092144;28;20410;-70
2021/11/08 02:35:38;;;;;;;0.40;0.20;;;6.80;99.90;;;;;;5092205;28;20783;-70
2021/11/08 02:38:08;;;;;;;0.40;0.20;;;6.80;99.90;;;;;;5091957;28;20439;-69
2021/11/08 02:40:33;;;;;;;0.80;0.60;;;6.90;99.90;;;;;;5092678;28;20390;-70
2021/11/08 02:43:03;;;;;;;0.40;0.30;;;6.90;99.90;;;;;;5091664;28;20842;-69
2021/11/08 02:45:30;;;;;;;0.40;0.30;;;6.90;99.90;;;;;;5092491;28;20485;-69
2021/11/08 02:47:56;;;;;;;0.40;0.30;;;7.00;99.90;;;;;;5091692;28;20437;-70
2021/11/08 02:50:26;;;;;;;0.40;0.20;;;7.10;99.90;;;;;;5091909;28;20739;-69
2021/11/08 02:52:53;;;;;;;0.40;0.30;;;7.00;99.90;;;;;;5090306;28;20855;-70
2021/11/08 02:55:23;;;;;;;0.40;0.20;;;7.10;99.90;;;;;;5092321;28;20775;-70
2021/11/08 02:57:50;;;;;;;0.40;0.20;;;7.10;99.90;;;;;;5092177;28;20402;-70
2021/11/08 03:00:18;;;;;;;0.40;0.30;;;7.10;99.90;;;;;;5091310;28;20859;-69
2021/11/08 03:02:44;;;;;;;0.40;0.30;;;7.10;99.90;;;;;;5091934;28;20378;-70
2021/11/08 03:05:13;;;;;;;0.40;0.30;;;7.00;99.90;;;;;;5091405;28;20860;-70
2021/11/08 03:07:39;;;;;;;0.40;0.20;;;7.10;99.90;;;;;;5092010;28;20377;-70
2021/11/08 03:10:15;;;;;;;0.40;0.20;;;7.00;99.90;;;;;;5091389;28;20375;-70
2021/11/08 03:12:43;;;;;;;0.40;0.30;;;7.10;99.90;;;;;;5091945;28;20451;-69
2021/11/08 03:15:13;;;;;;;0.40;0.20;;;7.00;99.90;;;;;;5091207;28;20489;-69
2021/11/08 03:17:45;;;;;;;0.60;0.40;;;6.90;99.90;;;;;;5091430;28;20934;-70
2021/11/08 03:20:18;;;;;;;0.40;0.30;;;6.80;99.90;;;;;;5091066;28;20405;-70
2021/11/08 03:22:57;;;;;;;0.40;0.20;;;6.90;99.90;;;;;;5091843;28;20378;-69
2021/11/08 03:25:39;;;;;;;0.70;0.70;;;6.90;99.90;;;;;;5091883;28;20780;-69
2021/11/08 03:28:08;;;;;;;0.40;0.30;;;6.80;99.90;;;;;;5091142;28;20719;-70
2021/11/08 03:30:39;;;;;;;0.40;0.20;;;6.80;99.90;;;;;;5090199;28;20410;-70
2021/11/08 03:33:08;;;;;;;0.40;0.30;;;6.80;99.90;;;;;;5089453;28;20402;-69
2021/11/08 03:35:34;;;;;;;0.50;0.50;;;6.70;99.90;;;;;;5090730;28;20382;-69
2021/11/08 03:38:03;;;;;;;4.53;0.57;;;6.60;99.90;;;;;;5089456;28;20398;-70
2021/11/08 03:40:32;;;;;;;0.40;0.30;;;6.50;99.90;;;;;;5091298;28;20852;-69
2021/11/08 03:43:00;;;;;;;0.40;0.30;;;6.50;99.90;;;;;;5090707;28;20390;-70
2021/11/08 03:45:28;;;;;;;0.40;0.30;;;6.40;99.90;;;;;;5091466;28;20378;-69
2021/11/08 03:47:55;;;;;;;0.40;0.30;;;6.20;99.90;;;;;;5090689;28;20393;-69
2021/11/08 03:50:22;;;;;;;0.40;0.30;;;6.00;99.90;;;;;;5090734;28;20501;-70
2021/11/08 03:52:49;;;;;;;0.40;0.20;;;6.00;99.90;;;;;;5091295;28;20390;-69
2021/11/08 03:55:16;;;;;;;0.40;0.30;;;6.10;99.90;;;;;;5090489;28;21055;-69
2021/11/08 03:57:42;;;;;;;0.40;0.30;;;6.10;99.90;;;;;;5091202;28;20381;-69
2021/11/08 04:00:12;;;;;;;0.40;0.20;;;6.00;99.90;;;;;;5090346;28;20478;-69
2021/11/08 04:02:39;;;;;;;0.40;0.30;;;5.90;99.90;;;;;;5091081;28;20386;-69
2021/11/08 04:05:07;;;;;;;0.40;0.30;;;5.90;99.90;;;;;;5089897;28;20498;-70
2021/11/08 04:07:33;;;;;;;3.20;0.70;;;5.90;99.90;;;;;;5091265;28;20456;-70
2021/11/08 04:09:59;;;;;;;0.40;0.30;;;5.80;99.90;;;;;;5090344;28;20410;-70
2021/11/08 04:12:27;;;;;;;0.40;0.30;;;5.70;99.90;;;;;;5090829;28;20488;-70
2021/11/08 04:14:54;;;;;;;0.40;0.30;;;5.70;99.90;;;;;;5090646;28;20466;-69
2021/11/08 04:17:22;;;;;;;0.40;0.32;;;5.60;99.90;;;;;;5089901;28;20382;-70
2021/11/08 04:19:47;;;;;;;0.40;0.20;;;5.60;99.90;;;;;;5090440;28;20473;-69
2021/11/08 04:22:14;;;;;;;0.40;0.20;;;5.50;99.90;;;;;;5090080;28;20798;-69
2021/11/08 04:24:42;;;;;;;0.40;0.20;;;5.40;99.90;;;;;;5090315;28;20379;-69
2021/11/08 04:27:10;;;;;;;0.40;0.20;;;5.50;99.90;;;;;;5090082;28;20382;-70
2021/11/08 04:29:37;;;;;;;0.40;0.30;;;5.40;99.90;;;;;;5090666;28;20453;-69
2021/11/08 04:32:03;;;;;;;0.40;0.30;;;5.40;99.90;;;;;;5090057;28;20406;-70
2021/11/08 04:34:39;;;;;;;0.40;0.30;;;5.40;99.90;;;;;;5090345;28;20457;-69
2021/11/08 04:37:16;;;;;;;0.40;0.30;;;5.40;99.90;;;;;;5090072;28;20473;-69
2021/11/08 04:42:48;;;;;;;0.40;0.20;;;5.30;99.90;;;;;;5090497;28;20435;-69
2021/11/08 04:53:28;;;;;;;0.40;0.30;;;5.40;99.90;;;;;;5089604;28;20401;-69
2021/11/08 04:56:51;;;;;;;0.40;0.20;;;5.40;99.90;;;;;;5090093;28;20456;-69
2021/11/08 05:20:57;;;;;;;0.40;0.20;;;5.40;99.90;;;;;;5083980;28;20390;-70
2021/11/08 05:31:01;;;;;;;0.40;0.30;;;4.80;99.90;;;;;;5090579;28;20458;-70
2021/11/08 05:33:27;;;;;;;0.40;0.20;;;4.90;99.90;;;;;;5090634;28;20382;-70
2021/11/08 05:35:53;;;;;;;0.40;0.20;;;4.90;99.90;;;;;;5089266;28;20959;-70
2021/11/08 05:38:19;;;;;;;0.40;0.20;;;4.90;99.90;;;;;;5090034;28;20477;-70
2021/11/08 05:40:45;;;;;;;0.40;0.20;;;5.00;99.90;;;;;;5090433;28;20385;-70
2021/11/08 05:43:10;;;;;;;0.40;0.20;;;4.90;99.90;;;;;;5090097;28;20708;-70
2021/11/08 05:45:38;;;;;;;0.40;0.20;;;4.90;99.90;;;;;;5090479;28;20477;-70
2021/11/08 05:48:05;;;;;;;0.40;0.20;;;4.90;99.90;;;;;;5089878;28;20386;-70
2021/11/08 05:50:33;;;;;;;0.40;0.30;;;4.90;99.90;;;;;;5090310;28;20417;-70
2021/11/08 05:52:59;;;;;;;0.50;0.40;;;4.80;99.90;;;;;;5090498;28;20866;-70
2021/11/08 06:50:02;;;;;;;0.40;0.30;;;4.10;99.90;;;;;;5109129;28;20469;-70
2021/11/08 06:52:31;;;;;;;0.40;0.20;;;4.10;99.90;;;;;;5092756;28;20472;-70
2021/11/08 06:55:02;;;;;;;0.40;0.20;;;4.10;99.90;;;;;;5097572;28;20382;-70
2021/11/08 06:58:02;;;;;;;0.40;0.40;;;4.00;99.90;;;;;;5096865;28;20453;-71
2021/11/08 07:00:22;;;;;;;0.40;0.20;;;4.10;99.90;;;;;;5094746;28;20781;-71
2021/11/08 07:02:47;;;;;;;0.90;0.80;;;4.20;99.90;;;;;;5089575;28;20397;-70
2021/11/08 07:05:13;;;;;;;0.40;0.30;;;4.10;99.90;;;;;;5081233;28;20399;-70
2021/11/08 07:07:38;;;;;;;0.40;0.30;;;4.10;99.90;;;;;;5086039;28;20386;-70
2021/11/08 07:10:06;;;;;;;0.40;0.40;;;4.10;99.90;;;;;;5095668;28;20377;-70
2021/11/08 07:12:35;;;;;;;0.40;0.30;;;4.10;99.90;;;;;;5096650;28;20497;-70
2021/11/08 07:15:01;;;;;;;0.40;0.20;;;4.10;99.90;;;;;;5099256;28;20932;-70
2021/11/08 07:17:27;;;;;;;0.40;0.30;;;4.10;99.90;;;;;;5099057;28;20394;-70
2021/11/08 07:19:53;;;;;;;0.40;0.20;;;4.10;99.90;;;;;;5102437;28;20385;-70
2021/11/08 07:22:19;;;;;;;0.60;0.50;;;4.10;99.90;;;;;;5094640;28;20902;-70
2021/11/08 07:24:45;;;;;;;0.40;0.20;;;4.10;99.90;;;;;;5107176;28;20385;-70
2021/11/08 07:27:11;;;;;;;0.40;0.30;;;4.10;99.90;;;;;;5100301;28;20467;-71
2021/11/08 07:29:37;;;;;;;0.60;0.60;;;4.20;99.90;;;;;;5097943;28;21072;-70
2021/11/08 07:32:06;;;;;;;0.40;0.20;;;4.30;99.90;;;;;;5108852;28;20443;-70
2021/11/08 07:34:32;;;;;;;0.40;0.30;;;4.40;99.90;;;;;;5102554;28;20870;-70
2021/11/08 07:36:58;;;;;;;0.40;0.20;;;4.30;99.90;;;;;;5095331;28;20377;-71
2021/11/08 07:39:24;;;;;;;2.00;1.00;;;4.40;99.90;;;;;;5092500;28;20413;-70
2021/11/08 07:41:50;;;;;;;0.40;0.20;;;4.50;99.90;;;;;;5093543;28;20414;-70
2021/11/08 07:44:16;;;;;;;0.40;0.20;;;4.50;99.90;;;;;;5105116;28;20380;-70
2021/11/08 07:46:42;;;;;;;0.40;0.30;;;4.50;99.90;;;;;;5076916;28;20392;-70
2021/11/08 07:49:08;;;;;;;0.40;0.30;;;4.50;99.90;;;;;;5077979;28;20394;-70
2021/11/08 07:51:34;;;;;;;0.40;0.20;;;4.50;99.90;;;;;;5077020;28;20502;-70
2021/11/08 07:53:59;;;;;;;0.40;0.20;;;4.60;99.90;;;;;;5076868;28;20513;-70
2021/11/08 07:56:25;;;;;;;0.40;0.20;;;4.60;99.90;;;;;;5074748;28;20424;-70
2021/11/08 07:58:51;;;;;;;0.40;0.20;;;4.70;99.90;;;;;;5078438;28;20532;-71
2021/11/08 08:01:17;;;;;;;0.90;0.50;;;4.80;99.90;;;;;;5076639;28;20874;-70
2021/11/08 08:03:45;;;;;;;0.60;0.60;;;4.80;99.90;;;;;;5077985;28;20390;-70
2021/11/08 08:06:28;;;;;;;0.40;0.20;;;4.90;99.90;;;;;;5075860;28;20890;-71
2021/11/08 08:09:14;;;;;;;0.40;0.22;;;5.00;99.90;;;;;;5076177;28;20409;-71
2021/11/08 08:11:40;;;;;;;0.80;0.80;;;5.00;99.90;;;;;;5079502;28;20441;-70
2021/11/08 08:14:05;;;;;;;0.40;0.20;;;5.10;99.90;;;;;;5109221;28;20423;-71
2021/11/08 08:16:31;;;;;;;0.40;0.20;;;5.20;99.90;;;;;;5111010;28;20377;-72
2021/11/08 08:18:57;;;;;;;0.40;0.20;;;5.30;99.90;;;;;;5111727;28;20384;-71
2021/11/08 08:21:26;;;;;;;0.40;0.40;;;5.30;99.90;;;;;;5110163;28;20985;-72
2021/11/08 08:24:01;;;;;;;0.40;0.30;;;5.50;99.90;;;;;;5111422;28;20782;-71
2021/11/08 08:26:32;;;;;;;0.40;0.40;;;5.40;99.90;;;;;;5109252;28;20731;-71
2021/11/08 08:29:06;;;;;;;0.40;0.30;;;5.60;99.90;;;;;;5111298;28;20887;-72
2021/11/08 08:31:38;;;;;;;0.40;0.30;;;5.50;99.90;;;;;;5110736;28;20404;-72
2021/11/08 08:34:05;;;;;;;0.40;0.30;;;5.50;99.90;;;;;;5111444;28;20406;-71
2021/11/08 08:36:31;;;;;;;0.40;0.20;;;5.40;99.90;;;;;;5109522;28;20841;-70
2021/11/08 08:38:57;;;;;;;0.50;0.40;;;5.50;99.90;;;;;;5111496;28;20387;-71
2021/11/08 08:41:23;;;;;;;0.40;0.30;;;5.50;99.90;;;;;;5110509;28;20924;-71
2021/11/08 08:43:52;;;;;;;0.40;0.30;;;5.60;99.90;;;;;;5111371;28;20469;-71
2021/11/08 08:46:20;;;;;;;0.40;0.30;;;5.70;99.90;;;;;;5110544;28;20384;-71
2021/11/08 08:48:54;;;;;;;0.40;0.20;;;5.80;99.90;;;;;;5093547;28;20386;-73
2021/11/08 08:51:21;;;;;;;0.80;0.60;;;5.80;99.90;;;;;;5089602;28;20505;-71
2021/11/08 08:53:47;;;;;;;0.40;0.20;;;5.90;99.90;;;;;;5090828;28;20378;-71
2021/11/08 08:56:14;;;;;;;0.40;0.20;;;6.00;99.90;;;;;;5090611;28;20420;-71
2021/11/08 08:58:40;;;;;;;0.40;0.20;;;6.00;99.90;;;;;;5090722;28;20393;-71
2021/11/08 09:01:10;;;;;;;0.50;0.50;;;6.10;99.90;;;;;;5090845;28;20393;-72
2021/11/08 09:03:45;;;;;;;0.40;0.20;;;6.20;99.90;;;;;;5086031;28;20386;-71
2021/11/08 09:06:10;;;;;;;0.40;0.20;;;6.20;99.90;;;;;;5085168;28;20417;-71
2021/11/08 09:08:44;;;;;;;0.40;0.30;;;6.40;99.90;;;;;;5070843;28;20431;-72
2021/11/08 09:11:10;;;;;;;0.40;0.20;;;6.50;99.90;;;;;;5070622;28;20407;-70
2021/11/08 09:13:37;;;;;;;0.40;0.20;;;6.60;99.90;;;;;;5070551;28;20387;-70
2021/11/08 09:16:10;;;;;;;0.40;0.20;;;6.60;99.90;;;;;;5070352;28;20470;-70
2021/11/08 09:18:37;;;;;;;0.50;0.50;;;6.60;99.90;;;;;;5070479;28;20391;-70
2021/11/08 09:21:03;;;;;;;0.40;0.20;;;6.70;99.90;;;;;;5068883;28;20408;-70
2021/11/08 09:23:28;;;;;;;0.40;0.30;;;6.70;99.90;;;;;;5069659;28;20391;-70
2021/11/08 09:25:54;;;;;;;0.40;0.30;;;6.70;99.90;;;;;;5070758;28;20372;-70
2021/11/08 09:28:20;;;;;;;0.40;0.30;;;6.70;99.90;;;;;;5069678;28;20741;-71
2021/11/08 09:30:45;;;;;;;0.40;0.20;;;6.80;99.90;;;;;;5070514;28;20412;-69
2021/11/08 09:33:12;;;;;;;0.40;0.20;;;6.90;99.90;;;;;;5070906;28;20739;-69
2021/11/08 09:35:43;;;;;;;0.40;0.30;;;7.10;99.90;;;;;;5074537;28;20403;-70
2021/11/08 09:38:10;;;;;;;0.40;0.30;;;7.20;99.90;;;;;;5074189;28;20395;-70
2021/11/08 09:40:39;;;;;;;0.40;0.30;;;7.20;99.90;;;;;;5073563;28;20409;-70
2021/11/08 09:43:08;;;;;;;0.40;0.20;;;7.30;99.90;;;;;;5074063;28;20376;-70
2021/11/08 09:45:35;;;;;;;0.40;0.40;;;7.30;99.90;;;;;;5073319;28;20391;-70
2021/11/08 09:48:01;;;;;;;0.40;0.20;;;7.50;99.90;;;;;;5085577;28;20389;-70
2021/11/08 09:50:31;;;;;;;1.10;1.10;;;7.60;99.90;;;;;;5093115;28;20414;-70
2021/11/08 09:52:59;;;;;;;0.40;0.20;;;7.60;99.90;;;;;;5094222;28;20827;-70
2021/11/08 09:55:25;;;;;;;0.40;0.30;;;7.70;99.90;;;;;;5093332;28;20377;-70
2021/11/08 09:57:55;;;;;;;0.40;0.30;;;7.80;99.90;;;;;;5094037;28;20745;-70
2021/11/08 10:00:23;;;;;;;0.40;0.40;;;7.90;99.90;;;;;;5093450;28;20374;-70
2021/11/08 10:02:55;;;;;;;0.40;0.30;;;8.00;99.90;;;;;;5093862;28;20393;-70
2021/11/08 10:05:22;;;;;;;0.40;0.20;;;8.20;99.90;;;;;;5093364;28;20371;-70
2021/11/08 10:07:49;;;;;;;0.40;0.20;;;8.30;99.90;;;;;;5093844;28;20384;-70
2021/11/08 10:10:15;;;;;;;0.40;0.20;;;8.50;99.90;;;;;;5093250;28;20718;-70
2021/11/08 10:12:41;;;;;;;0.40;0.20;;;8.60;99.90;;;;;;5093847;28;20492;-69
2021/11/08 10:15:09;;;;;;;0.40;0.20;;;8.50;99.90;;;;;;5093645;28;20482;-70
2021/11/08 10:17:35;;;;;;;0.40;0.30;;;8.50;99.90;;;;;;5093026;28;20738;-69
2021/11/08 10:20:00;;;;;;;0.40;0.20;;;8.50;99.90;;;;;;5093426;28;20370;-70
2021/11/08 10:22:28;;;;;;;0.40;0.20;;;8.70;99.90;;;;;;5092652;28;20389;-72
2021/11/08 10:24:58;;;;;;;0.50;0.40;;;8.90;99.90;;;;;;5093543;28;20382;-70
2021/11/08 10:27:24;;;;;;;0.40;0.30;;;9.00;99.90;;;;;;5092684;28;20393;-70
2021/11/08 10:29:50;;;;;;;0.40;0.20;;;8.80;99.90;;;;;;5093527;28;20765;-71
2021/11/08 10:32:16;;;;;;;0.40;0.20;;;9.00;99.90;;;;;;5092704;28;20413;-70
2021/11/08 10:34:58;;;;;;;0.40;0.20;;;9.30;99.90;;;;;;5093261;28;20397;-69
2021/11/08 10:37:31;;;;;;;0.40;0.30;;;9.50;99.90;;;;;;5092704;28;20386;-70
2021/11/08 10:39:59;;;;;;;0.40;0.40;;;9.80;99.90;;;;;;5093301;28;20379;-71
2021/11/08 10:42:28;;;;;;;0.40;0.20;;;9.80;99.90;;;;;;5092542;28;20387;-70
2021/11/08 10:44:55;;;;;;;0.40;0.20;;;9.80;99.90;;;;;;5092885;28;20524;-70
2021/11/08 10:47:21;;;;;;;0.40;0.20;;;9.70;99.90;;;;;;5092059;28;20904;-70
2021/11/08 10:49:48;;;;;;;0.40;0.20;;;9.70;99.90;;;;;;5092866;28;20377;-69
2021/11/08 10:52:19;;;;;;;0.40;0.20;;;10.10;99.90;;;;;;5092702;28;20946;-70
2021/11/08 10:54:54;;;;;;;0.40;0.40;;;10.40;99.90;;;;;;5093339;28;20404;-70
2021/11/08 10:57:26;;;;;;;0.40;0.30;;;10.80;99.90;;;;;;5092267;28;20378;-68
2021/11/08 10:59:55;;;;;;;0.40;0.30;;;10.70;99.90;;;;;;5092543;28;20370;-70
2021/11/08 11:02:26;;;;;;;0.40;0.30;;;10.80;99.90;;;;;;5091842;28;20382;-71
2021/11/08 11:05:02;;;;;;;0.40;0.30;;;11.40;99.90;;;;;;5092478;28;20410;-71
2021/11/08 11:07:35;;;;;;;0.40;0.30;;;12.20;99.60;;;;;;5090324;28;20390;-71
2021/11/08 11:10:08;;;;;;;0.40;0.20;;;13.30;96.90;;;;;;5092817;28;20378;-70
2021/11/08 11:12:40;;;;;;;0.40;0.30;;;12.50;94.60;;;;;;5091723;28;20917;-72
2021/11/08 11:15:21;;;;;;;0.40;0.20;;;12.70;95.50;;;;;;5092527;28;20413;-71
2021/11/08 11:17:59;;;;;;;0.40;0.20;;;12.90;93.40;;;;;;5092330;28;20418;-70
2021/11/08 11:20:30;;;;;;;0.40;0.20;;;13.10;95.80;;;;;;5091836;28;20447;-70
2021/11/08 11:23:19;;;;;;;0.40;0.20;;;13.10;93.50;;;;;;5092495;28;20495;-70
2021/11/08 11:25:51;;;;;;;0.40;0.20;;;13.60;93.60;;;;;;5092488;28;20377;-69
2021/11/08 11:28:41;;;;;;;0.40;0.20;;;12.80;95.50;;;;;;5092047;28;20885;-70
2021/11/08 11:31:19;;;;;;;0.40;0.20;;;12.30;93.80;;;;;;5092302;28;20433;-71
2021/11/08 11:33:46;;;;;;;0.40;0.20;;;12.40;94.80;;;;;;5092496;28;20405;-70
2021/11/08 11:36:22;;;;;;;0.70;0.50;;;11.80;95.80;;;;;;5092199;28;20749;-70
2021/11/08 11:38:56;;;;;;;0.40;0.30;;;12.10;97.70;;;;;;5092271;28;20413;-71
2021/11/08 11:41:29;;;;;;;0.40;0.30;;;12.60;96.70;;;;;;5091468;28;20385;-70
2021/11/08 11:44:01;;;;;;;0.40;0.20;;;13.50;94.90;;;;;;5091892;28;20378;-70
2021/11/08 11:46:29;;;;;;;0.40;0.20;;;13.10;93.50;;;;;;5089226;28;20398;-70
2021/11/08 11:49:02;;;;;;;0.40;0.20;;;12.80;95.40;;;;;;5091773;28;20391;-70
2021/11/08 11:51:52;;;;;;;0.40;0.20;;;12.50;96.20;;;;;;5090867;28;20417;-70
2021/11/08 11:54:22;;;;;;;0.40;0.20;;;12.80;95.80;;;;;;5091871;28;20378;-70
2021/11/08 11:56:50;;;;;;;0.40;0.20;;;12.60;94.90;;;;;;5091032;28;20415;-70
2021/11/08 11:59:17;;;;;;;0.40;0.30;;;12.80;94.70;;;;;;5091628;28;20382;-70
2021/11/08 12:01:44;;;;;;;0.40;0.20;;;12.70;95.20;;;;;;5090926;28;20409;-71
2021/11/08 12:04:12;;;;;;;0.43;0.40;;;12.80;95.90;;;;;;5091619;28;20427;-70
2021/11/08 12:06:42;;;;;;;0.40;0.30;;;11.70;95.60;;;;;;5090725;28;20904;-72
2021/11/08 12:09:17;;;;;;;0.40;0.20;;;12.80;96.80;;;;;;5091495;28;20913;-71
2021/11/08 12:11:47;;;;;;;0.40;0.20;;;13.30;95.50;;;;;;5090709;28;20732;-71
2021/11/08 12:14:18;;;;;;;0.40;0.22;;;12.90;94.30;;;;;;5091482;28;20431;-69
2021/11/08 12:17:02;;;;;;;0.40;0.20;;;11.90;96.40;;;;;;5090620;28;20790;-71
2021/11/08 12:19:32;;;;;;;0.40;0.25;;;11.80;98.70;;;;;;5090451;28;20434;-71
2021/11/08 12:22:09;;;;;;;0.40;0.30;;;11.50;97.90;;;;;;5091692;28;20374;-71
2021/11/08 12:24:35;;;;;;;0.40;0.20;;;11.40;98.50;;;;;;5090334;28;20370;-71
2021/11/08 12:27:11;;;;;;;0.40;0.20;;;11.40;97.90;;;;;;5091704;28;20826;-71
2021/11/08 12:29:53;;;;;;;1.00;0.90;;;11.20;98.90;;;;;;5090696;28;20374;-71
2021/11/08 12:32:19;;;;;;;0.40;0.20;;;11.80;97.50;;;;;;5091112;28;20405;-71
2021/11/08 12:34:54;;;;;;;0.40;0.20;;;12.40;98.70;;;;;;5090566;28;20385;-70
2021/11/08 12:37:20;;;;;;;0.40;0.30;;;12.70;94.90;;;;;;5091306;28;20837;-71
2021/11/08 12:40:00;;;;;;;0.80;0.80;;;12.30;95.20;;;;;;5090398;28;20373;-71
2021/11/08 12:42:39;;;;;;;0.40;0.30;;;11.90;97.00;;;;;;5090360;28;20820;-71
2021/11/08 12:45:24;;;;;;;0.40;0.30;;;11.50;97.70;;;;;;5091058;28;20398;-71
2021/11/08 12:48:12;;;;;;;0.40;0.30;;;11.40;98.90;;;;;;5091243;28;20390;-71
2021/11/08 12:50:43;;;;;;;0.40;0.30;;;11.60;99.90;;;;;;5089788;28;20410;-71
2021/11/08 12:53:30;;;;;;;0.40;0.20;;;11.50;99.70;;;;;;5090946;28;20386;-71
2021/11/08 12:55:59;;;;;;;0.90;0.90;;;11.30;99.10;;;;;;5090821;28;20386;-71
2021/11/08 12:58:31;;;;;;;0.60;0.60;;;11.20;99.90;;;;;;5090213;28;20792;-71
2021/11/08 13:00:57;;;;;;;0.40;0.40;;;11.20;99.90;;;;;;5091063;28;20706;-71
2021/11/08 13:03:39;;;;;;;0.40;0.20;;;11.10;99.90;;;;;;5090945;28;20435;-71
2021/11/08 13:06:06;;;;;;;0.40;0.20;;;10.90;99.90;;;;;;5090639;28;20895;-71
2021/11/08 13:08:33;;;;;;;0.40;0.25;;;10.90;99.90;;;;;;5093164;28;20754;-71
2021/11/08 13:10:59;;;;;;;0.70;0.60;;;10.70;99.90;;;;;;5094610;28;20493;-71
2021/11/08 13:13:25;;;;;;;0.40;0.20;;;10.50;99.90;;;;;;5094815;28;20509;-71
2021/11/08 13:15:59;;;;;;;0.40;0.30;;;10.60;99.90;;;;;;5094008;28;20456;-71
2021/11/08 13:18:38;;;;;;;0.40;0.28;;;10.60;99.90;;;;;;5094300;28;20419;-71
2021/11/08 13:21:04;;;;;;;0.40;0.20;;;10.30;99.90;;;;;;5094278;28;20396;-70
2021/11/08 13:23:38;;;;;;;0.40;0.20;;;10.40;99.90;;;;;;5093602;28;20377;-71
2021/11/08 13:26:05;;;;;;;0.40;0.20;;;10.60;99.90;;;;;;5094396;28;20374;-71
2021/11/08 13:28:32;;;;;;;0.40;0.20;;;11.50;99.90;;;;;;5093515;28;20386;-71
2021/11/08 13:31:02;;;;;;;0.40;0.20;;;12.60;99.90;;;;;;5092551;28;20401;-71
2021/11/08 13:33:32;;;;;;;0.90;0.90;;;12.80;99.90;;;;;;5093839;28;20381;-70
2021/11/08 13:35:58;;;;;;;0.40;0.20;;;12.30;99.80;;;;;;5094572;28;20386;-70
2021/11/08 13:38:27;;;;;;;0.40;0.20;;;11.40;99.90;;;;;;5094282;28;20851;-72
2021/11/08 13:40:57;;;;;;;0.40;0.20;;;11.30;99.90;;;;;;5093327;28;20520;-70
2021/11/08 13:43:23;;;;;;;0.40;0.30;;;11.60;99.90;;;;;;5094285;28;20382;-70
2021/11/08 13:45:57;;;;;;;0.40;0.30;;;12.50;99.90;;;;;;5093041;28;20406;-71
2021/11/08 13:48:29;;;;;;;0.40;0.30;;;12.60;98.50;;;;;;5093759;28;20401;-71
2021/11/08 13:50:57;;;;;;;0.40;0.30;;;12.90;98.00;;;;;;5093192;28;20527;-71
2021/11/08 13:53:42;;;;;;;0.90;0.80;;;12.60;96.10;;;;;;5093777;28;20447;-71
2021/11/08 13:56:11;;;;;;;0.50;0.40;;;12.30;97.10;;;;;;5092843;28;20718;-70
2021/11/08 13:58:51;;;;;;;0.40;0.30;;;12.60;97.70;;;;;;5091519;28;20417;-73
2021/11/08 14:01:20;;;;;;;0.40;0.20;;;13.30;95.90;;;;;;5093737;28;20415;-73
2021/11/08 14:03:49;;;;;;;0.40;0.30;;;13.30;94.60;;;;;;5092780;28;20468;-72
2021/11/08 14:06:31;;;;;;;0.40;0.22;;;13.40;94.20;;;;;;5089780;28;20402;-72
2021/11/08 14:08:58;;;;;;;0.40;0.30;;;13.90;93.20;;;;;;5091970;28;20457;-71
2021/11/08 14:11:48;;;;;;;0.40;0.30;;;13.60;92.70;;;;;;5091622;28;20416;-71
2021/11/08 14:14:20;;;;;;;0.40;0.30;;;12.80;92.40;;;;;;5087153;28;20473;-71
2021/11/08 14:16:49;;;;;;;0.40;0.30;;;12.40;92.50;;;;;;5091362;28;20386;-72
2021/11/08 14:19:22;;;;;;;0.50;0.40;;;11.90;93.00;;;;;;5084955;28;20489;-72
2021/11/08 14:21:51;;;;;;;0.40;0.20;;;11.90;93.00;;;;;;5091187;28;20378;-72
2021/11/08 14:24:21;;;;;;;0.40;0.30;;;12.00;94.20;;;;;;5090115;28;20406;-71
2021/11/08 14:26:51;;;;;;;0.40;0.30;;;11.90;95.70;;;;;;5087654;28;20719;-72
2021/11/08 14:29:21;;;;;;;0.70;0.70;;;11.90;95.70;;;;;;5088606;28;20448;-72
2021/11/08 14:32:21;;;;;;;0.40;0.30;;;11.70;94.30;;;;;;5087175;28;20479;-72
2021/11/08 14:35:02;;;;;;;0.40;0.30;;;11.50;94.40;;;;;;5055261;28;20438;-72
2021/11/08 14:37:45;;;;;;;0.40;0.30;;;11.30;95.60;;;;;;5089992;28;20382;-71
2021/11/08 14:40:24;;;;;;;0.40;0.30;;;11.10;95.60;;;;;;5088979;28;20389;-71
2021/11/08 14:42:51;;;;;;;0.40;0.30;;;10.90;98.40;;;;;;5088053;28;20874;-71